sensor_id;sensor_type;location;lat;lon;timestamp;temperature;humidity
16728;DHT22;8482;54.396;18.590;2024-03-07T17:08:52;6.40;99.90
16728;DHT22;8482;54.396;18.590;2024-03-07T17:11:19;6.10;99.90
16728;DHT22;8482;54.396;18.590;2024-03-07T17:13:45;6.00;99.90
16728;DHT22;8482;54.396;18.590;2024-03-07T17:16:11;6.00;99.90
16728;DHT22;8482;54.396;18.590;2024-03-07T17:18:36;6.00;99.90
16728;DHT22;8482;54.396;18.590;2024-03-07T17:21:02;5.90;99.90
16728;DHT22;8482;54.396;18.590;2024-03-07T17:23:31;5.90;99.90
16728;DHT22;8482;54.396;18.590;2024-03-07T17:25:57;5.90;99.90
16728;DHT22;8482;54.396;18.590;2024-03-07T17:28:23;5.90;99.90
16728;DHT22;8482;54.396;18.590;2024-03-07T17:30:51;5.90;99.90
16728;DHT22;8482;54.396;18.590;2024-03-07T17:33:17;5.80;99.90
16728;DHT22;8482;54.396;18.590;2024-03-07T17:35:42;5.80;99.90
16728;DHT22;8482;54.396;18.590;2024-03-07T17:38:10;5.80;99.90
16728;DHT22;8482;54.396;18.590;2024-03-07T17:40:36;5.80;99.90
16728;DHT22;8482;54.396;18.590;2024-03-07T17:43:02;5.70;99.90
16728;DHT22;8482;54.396;18.590;2024-03-07T17:45:29;5.70;99.90
16728;DHT22;8482;54.396;18.590;2024-03-07T17:47:59;5.70;99.90
16728;DHT22;8482;54.396;18.590;2024-03-07T17:50:30;5.70;99.90
16728;DHT22;8482;54.396;18.590;2024-03-07T17:53:00;5.70;99.90
16728;DHT22;8482;54.396;18.590;2024-03-07T17:55:29;5.70;99.90
16728;DHT22;8482;54.396;18.590;2024-03-07T17:57:56;5.70;99.90
16728;DHT22;8482;54.396;18.590;2024-03-07T18:00:26;5.70;99.90
16728;DHT22;8482;54.396;18.590;2024-03-07T18:02:53;5.60;99.90
16728;DHT22;8482;54.396;18.590;2024-03-07T18:05:27;5.60;99.90
16728;DHT22;8482;54.396;18.590;2024-03-07T18:08:02;5.60;99.90
16728;DHT22;8482;54.396;18.590;2024-03-07T18:10:36;5.60;99.90
16728;DHT22;8482;54.396;18.590;2024-03-07T18:13:03;5.50;99.90
16728;DHT22;8482;54.396;18.590;2024-03-07T18:15:30;5.60;99.90
16728;DHT22;8482;54.396;18.590;2024-03-07T18:17:57;5.50;99.90
16728;DHT22;8482;54.396;18.590;2024-03-07T18:20:28;5.50;99.90
16728;DHT22;8482;54.396;18.590;2024-03-07T18:22:58;5.50;99.90
16728;DHT22;8482;54.396;18.590;2024-03-07T18:25:25;5.50;99.90
16728;DHT22;8482;54.396;18.590;2024-03-07T18:27:55;5.40;99.90
16728;DHT22;8482;54.396;18.590;2024-03-07T18:30:24;5.40;99.90
16728;DHT22;8482;54.396;18.590;2024-03-07T18:32:51;5.40;99.90
16728;DHT22;8482;54.396;18.590;2024-03-07T18:35:17;5.30;99.90
16728;DHT22;8482;54.396;18.590;2024-03-07T18:37:44;5.30;99.90
16728;DHT22;8482;54.396;18.590;2024-03-07T18:40:14;5.20;99.90
16728;DHT22;8482;54.396;18.590;2024-03-07T18:42:41;5.20;99.90
16728;DHT22;8482;54.396;18.590;2024-03-07T18:45:12;5.10;99.90
16728;DHT22;8482;54.396;18.590;2024-03-07T18:47:45;5.10;99.90
16728;DHT22;8482;54.396;18.590;2024-03-07T18:50:15;5.10;99.90
16728;DHT22;8482;54.396;18.590;2024-03-07T18:52:42;5.10;99.90
16728;DHT22;8482;54.396;18.590;2024-03-07T18:55:10;5.00;99.90
16728;DHT22;8482;54.396;18.590;2024-03-07T18:57:51;5.00;99.90
16728;DHT22;8482;54.396;18.590;2024-03-07T19:00:23;5.00;99.90
16728;DHT22;8482;54.396;18.590;2024-03-07T19:02:55;5.00;99.90
16728;DHT22;8482;54.396;18.590;2024-03-07T19:05:27;4.90;99.90
16728;DHT22;8482;54.396;18.590;2024-03-07T19:07:54;4.90;99.90
16728;DHT22;8482;54.396;18.590;2024-03-07T19:10:21;4.90;99.90
16728;DHT22;8482;54.396;18.590;2024-03-07T19:12:51;4.90;99.90
16728;DHT22;8482;54.396;18.590;2024-03-07T19:15:17;4.80;99.90
16728;DHT22;8482;54.396;18.590;2024-03-07T19:17:49;4.80;99.90
16728;DHT22;8482;54.396;18.590;2024-03-07T19:20:19;4.80;99.90
16728;DHT22;8482;54.396;18.590;2024-03-07T19:22:46;4.70;99.90
16728;DHT22;8482;54.396;18.590;2024-03-07T19:25:16;4.80;99.90
16728;DHT22;8482;54.396;18.590;2024-03-07T19:27:51;4.70;99.90
16728;DHT22;8482;54.396;18.590;2024-03-07T19:30:19;4.70;99.90
16728;DHT22;8482;54.396;18.590;2024-03-07T19:32:48;4.70;99.90
16728;DHT22;8482;54.396;18.590;2024-03-07T19:35:16;4.70;99.90
16728;DHT22;8482;54.396;18.590;2024-03-07T19:37:46;4.70;99.90
16728;DHT22;8482;54.396;18.590;2024-03-07T19:40:19;4.60;99.90
16728;DHT22;8482;54.396;18.590;2024-03-07T19:42:51;4.60;99.90
16728;DHT22;8482;54.396;18.590;2024-03-07T19:45:18;4.60;99.90
16728;DHT22;8482;54.396;18.590;2024-03-07T19:47:45;4.50;99.90
16728;DHT22;8482;54.396;18.590;2024-03-07T19:50:12;4.50;99.90
16728;DHT22;8482;54.396;18.590;2024-03-07T19:52:42;4.40;99.90
16728;DHT22;8482;54.396;18.590;2024-03-07T19:55:09;4.40;99.90
16728;DHT22;8482;54.396;18.590;2024-03-07T19:57:37;4.30;99.90
16728;DHT22;8482;54.396;18.590;2024-03-07T20:00:08;4.20;99.90
16728;DHT22;8482;54.396;18.590;2024-03-07T20:02:38;4.20;99.90
16728;DHT22;8482;54.396;18.590;2024-03-07T20:05:06;4.20;99.90
16728;DHT22;8482;54.396;18.590;2024-03-07T20:07:33;4.20;99.90
16728;DHT22;8482;54.396;18.590;2024-03-07T20:10:03;4.10;99.90
16728;DHT22;8482;54.396;18.590;2024-03-07T20:12:36;4.10;99.90
16728;DHT22;8482;54.396;18.590;2024-03-07T20:15:04;4.00;99.90
16728;DHT22;8482;54.396;18.590;2024-03-07T20:17:31;4.00;99.90
16728;DHT22;8482;54.396;18.590;2024-03-07T20:19:59;4.00;99.90
16728;DHT22;8482;54.396;18.590;2024-03-07T20:22:25;4.00;99.90
16728;DHT22;8482;54.396;18.590;2024-03-07T20:24:51;3.90;99.90
16728;DHT22;8482;54.396;18.590;2024-03-07T20:27:18;3.90;99.90
16728;DHT22;8482;54.396;18.590;2024-03-07T20:29:44;3.80;99.90
16728;DHT22;8482;54.396;18.590;2024-03-07T20:32:10;3.80;99.90
16728;DHT22;8482;54.396;18.590;2024-03-07T20:34:39;3.80;99.90
16728;DHT22;8482;54.396;18.590;2024-03-07T20:37:11;3.70;99.90
16728;DHT22;8482;54.396;18.590;2024-03-07T20:39:40;3.70;99.90
16728;DHT22;8482;54.396;18.590;2024-03-07T20:42:06;3.70;99.90
16728;DHT22;8482;54.396;18.590;2024-03-07T20:44:36;3.60;99.90
16728;DHT22;8482;54.396;18.590;2024-03-07T20:47:03;3.60;99.90
16728;DHT22;8482;54.396;18.590;2024-03-07T20:49:29;3.60;99.90
16728;DHT22;8482;54.396;18.590;2024-03-07T20:51:55;3.50;99.90
16728;DHT22;8482;54.396;18.590;2024-03-07T20:54:21;3.50;99.90
16728;DHT22;8482;54.396;18.590;2024-03-07T20:56:47;3.50;99.90
16728;DHT22;8482;54.396;18.590;2024-03-07T20:59:18;3.40;99.90
16728;DHT22;8482;54.396;18.590;2024-03-07T21:01:48;3.40;99.90
16728;DHT22;8482;54.396;18.590;2024-03-07T21:04:15;3.40;99.90
16728;DHT22;8482;54.396;18.590;2024-03-07T21:06:46;3.40;99.90
16728;DHT22;8482;54.396;18.590;2024-03-07T21:09:13;3.40;99.90
16728;DHT22;8482;54.396;18.590;2024-03-07T21:11:39;3.40;99.90
16728;DHT22;8482;54.396;18.590;2024-03-07T21:14:05;3.40;99.90
16728;DHT22;8482;54.396;18.590;2024-03-07T21:16:36;3.40;99.90
16728;DHT22;8482;54.396;18.590;2024-03-07T21:19:02;3.40;99.90
16728;DHT22;8482;54.396;18.590;2024-03-07T21:21:30;3.40;99.90
16728;DHT22;8482;54.396;18.590;2024-03-07T21:23:56;3.40;99.90
16728;DHT22;8482;54.396;18.590;2024-03-07T21:26:21;3.40;99.90
16728;DHT22;8482;54.396;18.590;2024-03-07T21:28:47;3.40;99.90
16728;DHT22;8482;54.396;18.590;2024-03-07T21:31:13;3.40;99.90
16728;DHT22;8482;54.396;18.590;2024-03-07T21:33:45;3.40;99.90
16728;DHT22;8482;54.396;18.590;2024-03-07T21:36:12;3.40;99.90
16728;DHT22;8482;54.396;18.590;2024-03-07T21:38:38;3.40;99.90
16728;DHT22;8482;54.396;18.590;2024-03-07T21:41:05;3.40;99.90
16728;DHT22;8482;54.396;18.590;2024-03-07T21:43:31;3.40;99.90
16728;DHT22;8482;54.396;18.590;2024-03-07T21:46:00;3.40;99.90
16728;DHT22;8482;54.396;18.590;2024-03-07T21:48:27;3.40;99.90
16728;DHT22;8482;54.396;18.590;2024-03-07T21:50:55;3.40;99.90
16728;DHT22;8482;54.396;18.590;2024-03-07T21:53:24;3.40;99.90
16728;DHT22;8482;54.396;18.590;2024-03-07T21:55:53;3.40;99.90
16728;DHT22;8482;54.396;18.590;2024-03-07T21:58:28;3.40;99.90
16728;DHT22;8482;54.396;18.590;2024-03-07T22:00:54;3.40;99.90
16728;DHT22;8482;54.396;18.590;2024-03-07T22:03:20;3.40;99.90
16728;DHT22;8482;54.396;18.590;2024-03-07T22:05:47;3.40;99.90
16728;DHT22;8482;54.396;18.590;2024-03-07T22:08:13;3.40;99.90
16728;DHT22;8482;54.396;18.590;2024-03-07T22:10:40;3.30;99.90
16728;DHT22;8482;54.396;18.590;2024-03-07T22:13:06;3.30;99.90
16728;DHT22;8482;54.396;18.590;2024-03-07T22:15:31;3.30;99.90
16728;DHT22;8482;54.396;18.590;2024-03-07T22:17:57;3.30;99.90
16728;DHT22;8482;54.396;18.590;2024-03-07T22:20:23;3.20;99.90
16728;DHT22;8482;54.396;18.590;2024-03-07T22:22:50;3.20;99.90
16728;DHT22;8482;54.396;18.590;2024-03-07T22:25:16;3.10;99.90
16728;DHT22;8482;54.396;18.590;2024-03-07T22:27:45;3.10;99.90
16728;DHT22;8482;54.396;18.590;2024-03-07T22:30:13;3.10;99.90
16728;DHT22;8482;54.396;18.590;2024-03-07T22:32:41;3.10;99.90
16728;DHT22;8482;54.396;18.590;2024-03-07T22:35:08;3.10;99.90
